This is the latest recevied weather packets stored in our database for station/object KI5GCD-13. If no packets are shown the sender has not sent any weather packets the latest 10 day(s).
| Time | Temp. | Humidity | Pressure | Rain* | Wind** | Luminosity | Snow |
|---|---|---|---|---|---|---|---|
| 1778014487 | 11.11° C | 94% | 1004.5 hPa | 0 mm | 1.79 m/s, 32° | - | - |
| 1778014187 | 11.11° C | 94% | 1004.4 hPa | 0 mm | 3.13 m/s, 3° | - | - |
| 1778013887 | 11.11° C | 94% | 1004.4 hPa | 0 mm | 2.68 m/s, 28° | - | - |
| 1778013587 | 11.11° C | 94% | 1004.5 hPa | 0 mm | 2.68 m/s, 19° | - | - |
| 1778013287 | 11.11° C | 93% | 1004.5 hPa | 0 mm | 1.34 m/s, 69° | - | - |
| 1778012987 | 11.67° C | 93% | 1004.6 hPa | 0 mm | 1.79 m/s, 88° | - | - |
| 1778012687 | 11.67° C | 93% | 1004.7 hPa | 0 mm | 1.34 m/s, 318° | - | - |
| 1778012387 | 11.67° C | 93% | 1004.4 hPa | 0 mm | 0.89 m/s, 20° | - | - |
| 1778012087 | 11.67° C | 92% | 1004.5 hPa | 0 mm | 1.79 m/s, 62° | - | - |
| 1778011787 | 12.22° C | 92% | 1004.6 hPa | 0 mm | 0.89 m/s, 324° | - | - |
| 1778011487 | 12.22° C | 93% | 1004.2 hPa | 0 mm | 0.45 m/s, 264° | - | - |
| 1778011188 | 11.67° C | 92% | 1004.2 hPa | 0 mm | 1.79 m/s, 19° | - | - |
| 1778010887 | 11.67° C | 93% | 1004.3 hPa | 0 mm | 1.79 m/s, 69° | - | - |
| 1778010587 | 12.22° C | 93% | 1004.3 hPa | 0 mm | 2.68 m/s, 59° | - | - |
| 1778010287 | 12.22° C | 93% | 1004.3 hPa | 0 mm | 0.89 m/s, 272° | - | - |
| 1778009987 | 12.22° C | 93% | 1004.5 hPa | 0 mm | 0.89 m/s, 79° | - | - |
| 1778009687 | 12.22° C | 93% | 1004.6 hPa | 0 mm | 2.24 m/s, 74° | - | - |
| 1778009387 | 12.22° C | 94% | 1004.4 hPa | 0 mm | 0.89 m/s, 99° | - | - |
| 1778009087 | 12.22° C | 94% | 1004.4 hPa | 0 mm | 0.45 m/s, 238° | - | - |
| 1778008787 | 12.22° C | 94% | 1004.2 hPa | 0 mm | 0.45 m/s, 250° | - | - |
| 1778008488 | 12.22° C | 94% | 1003.9 hPa | 0 mm | 4.02 m/s, 12° | - | - |
| 1778008187 | 12.22° C | 95% | 1003.8 hPa | 0 mm | 1.79 m/s, 286° | - | - |
| 1778007887 | 12.22° C | 94% | 1003.7 hPa | 0 mm | 1.34 m/s, 103° | - | - |
| 1778007587 | 12.22° C | 95% | 1003.3 hPa | 0 mm | 1.79 m/s, 289° | - | - |
| 1778007287 | 12.22° C | 95% | 1003.5 hPa | 0 mm | 2.68 m/s, 1° | - | - |
* Rain latest hour (hover to see other rain measurements)
** Current wind speed in m/s (hover to see current wind gust speed)